Time;durP1;ratioP1;P1;durP2;ratioP2;P2;SDS_P1;SDS_P2;PMS_P1;PMS_P2;Temp;Humidity;BMP_temperature;BMP_pressure;BME280_temperature;BME280_humidity;BME280_pressure;Samples;Min_cycle;Max_cycle;Signal;HPM_P1;HPM_P2
2022/06/27 00:00:10;;;;;;;1.80;1.40;;;25.30;67.00;;;;;;5034817;28;20037;-68
2022/06/27 00:02:37;;;;;;;1.80;1.50;;;25.30;66.90;;;;;;5034118;28;20371;-68
2022/06/27 00:05:04;;;;;;;2.70;1.48;;;25.20;67.10;;;;;;5034422;28;20477;-67
2022/06/27 00:07:30;;;;;;;1.75;1.38;;;25.20;67.30;;;;;;5033870;28;20022;-68
2022/06/27 00:09:55;;;;;;;1.10;1.02;;;25.10;67.60;;;;;;5034650;28;20366;-68
2022/06/27 00:12:21;;;;;;;1.45;1.20;;;25.10;67.50;;;;;;5034133;28;20061;-68
2022/06/27 00:14:47;;;;;;;3.25;1.20;;;25.10;67.70;;;;;;5034708;28;20033;-68
2022/06/27 00:17:13;;;;;;;1.35;1.13;;;25.00;67.80;;;;;;5034974;28;20029;-68
2022/06/27 00:19:38;;;;;;;2.83;1.30;;;25.00;68.00;;;;;;5033722;28;20037;-68
2022/06/27 00:22:04;;;;;;;1.10;1.00;;;25.00;68.20;;;;;;5034334;28;20458;-68
2022/06/27 00:24:31;;;;;;;2.13;1.48;;;25.00;68.30;;;;;;5033776;28;20021;-67
2022/06/27 00:26:56;;;;;;;1.13;1.00;;;24.90;68.40;;;;;;5016283;28;20077;-68
2022/06/27 00:29:22;;;;;;;4.18;1.00;;;24.90;68.50;;;;;;5033667;28;20119;-69
2022/06/27 00:31:48;;;;;;;2.00;1.30;;;24.90;68.40;;;;;;5034233;28;20026;-68
2022/06/27 00:34:13;;;;;;;1.25;1.02;;;24.90;68.40;;;;;;5033757;28;20030;-68
2022/06/27 00:36:39;;;;;;;0.93;0.93;;;24.80;68.30;;;;;;5033649;28;20029;-68
2022/06/27 00:39:05;;;;;;;3.13;1.40;;;24.80;68.30;;;;;;5033454;28;20516;-68
2022/06/27 00:41:30;;;;;;;2.33;1.38;;;24.80;68.50;;;;;;5033146;28;20026;-68
2022/06/27 00:43:56;;;;;;;1.52;1.25;;;24.70;68.60;;;;;;5033020;28;20072;-68
2022/06/27 00:46:22;;;;;;;1.88;1.10;;;24.70;69.00;;;;;;5033102;28;20072;-69
2022/06/27 00:48:47;;;;;;;1.88;1.27;;;24.70;68.80;;;;;;5032996;28;20037;-68
2022/06/27 00:51:13;;;;;;;2.05;1.10;;;24.70;69.00;;;;;;5032970;28;20025;-68
2022/06/27 00:53:40;;;;;;;1.83;1.27;;;24.70;69.00;;;;;;5031861;28;20025;-68
2022/06/27 00:56:06;;;;;;;2.00;1.40;;;24.60;69.00;;;;;;5033146;28;20029;-69
2022/06/27 00:58:32;;;;;;;2.35;1.50;;;24.60;69.30;;;;;;5032462;28;20510;-68
2022/06/27 01:00:58;;;;;;;2.60;1.60;;;24.60;69.00;;;;;;5032992;28;20030;-68
2022/06/27 01:03:23;;;;;;;0.95;0.88;;;24.60;68.90;;;;;;5032585;28;20453;-68
2022/06/27 01:05:52;;;;;;;2.13;1.33;;;24.60;69.10;;;;;;5032562;28;20030;-68
2022/06/27 01:08:23;;;;;;;2.03;1.50;;;24.50;69.20;;;;;;5032809;28;20033;-68
2022/06/27 01:10:49;;;;;;;1.20;1.10;;;24.50;69.40;;;;;;5033187;28;20069;-68
2022/06/27 01:13:15;;;;;;;1.35;1.15;;;24.50;69.80;;;;;;5032903;28;20036;-67
2022/06/27 01:15:42;;;;;;;3.30;1.17;;;24.40;70.00;;;;;;5032568;28;20029;-68
2022/06/27 01:18:09;;;;;;;1.27;1.13;;;24.40;70.00;;;;;;5033004;28;20022;-68
2022/06/27 01:20:34;;;;;;;1.23;1.13;;;24.40;70.70;;;;;;5032237;28;20045;-68
2022/06/27 01:23:01;;;;;;;2.58;1.25;;;24.40;70.40;;;;;;5033535;28;20022;-68
2022/06/27 01:25:27;;;;;;;2.03;1.30;;;24.40;70.50;;;;;;5032357;28;20385;-68
2022/06/27 01:27:53;;;;;;;1.13;1.10;;;24.30;70.90;;;;;;5032821;28;20045;-68
2022/06/27 01:30:19;;;;;;;1.27;1.17;;;24.30;70.90;;;;;;5032934;28;20497;-68
2022/06/27 01:32:45;;;;;;;1.17;1.08;;;24.30;71.10;;;;;;5032148;28;20029;-68
2022/06/27 01:35:11;;;;;;;1.20;1.10;;;24.30;71.10;;;;;;5032403;28;20029;-68
2022/06/27 01:37:37;;;;;;;1.27;1.17;;;24.30;71.30;;;;;;5031744;28;20034;-68
2022/06/27 01:40:03;;;;;;;1.35;0.90;;;24.30;71.20;;;;;;5032426;28;20033;-68
2022/06/27 01:42:29;;;;;;;1.63;1.33;;;24.20;71.10;;;;;;5031826;28;20075;-68
2022/06/27 01:44:55;;;;;;;1.30;1.20;;;24.20;71.10;;;;;;5031732;28;20076;-68
2022/06/27 01:47:21;;;;;;;1.30;1.20;;;24.20;71.40;;;;;;5032300;28;20025;-68
2022/06/27 01:49:46;;;;;;;1.60;1.23;;;24.20;71.50;;;;;;5031858;28;20038;-68
2022/06/27 01:52:14;;;;;;;1.25;1.15;;;24.10;71.60;;;;;;5032199;28;20025;-68
2022/06/27 01:54:40;;;;;;;1.20;1.10;;;24.10;71.90;;;;;;5031779;28;20030;-68
2022/06/27 01:57:08;;;;;;;3.28;1.17;;;24.10;72.30;;;;;;5032526;28;20355;-68
2022/06/27 01:59:34;;;;;;;1.20;1.10;;;24.10;72.60;;;;;;5031461;28;20424;-68
2022/06/27 02:02:04;;;;;;;1.80;1.20;;;24.10;73.00;;;;;;5031982;28;20035;-68
2022/06/27 02:04:31;;;;;;;3.80;1.02;;;24.00;73.50;;;;;;5014317;28;20117;-68
2022/06/27 02:06:59;;;;;;;2.13;1.38;;;24.00;73.60;;;;;;5031747;28;20030;-68
2022/06/27 02:09:25;;;;;;;1.55;1.23;;;24.00;74.00;;;;;;5032288;28;20112;-69
2022/06/27 02:11:52;;;;;;;2.15;1.50;;;24.00;74.40;;;;;;5032601;28;20101;-68
2022/06/27 02:14:18;;;;;;;1.40;1.30;;;24.00;74.90;;;;;;5014946;28;20040;-68
2022/06/27 02:16:44;;;;;;;1.33;1.10;;;23.90;75.90;;;;;;5031985;28;20567;-68
2022/06/27 02:19:15;;;;;;;1.25;1.15;;;23.90;75.70;;;;;;5032774;28;20179;-68
2022/06/27 02:21:42;;;;;;;1.63;1.20;;;23.90;76.20;;;;;;5031812;28;20025;-67
2022/06/27 02:24:08;;;;;;;1.60;1.48;;;23.80;76.50;;;;;;5032418;28;20118;-68
2022/06/27 02:26:35;;;;;;;3.58;1.00;;;23.80;76.80;;;;;;5031738;28;20049;-68
2022/06/27 02:29:01;;;;;;;1.50;1.40;;;23.70;77.30;;;;;;5032201;28;20501;-68
2022/06/27 02:31:27;;;;;;;1.38;1.20;;;23.70;78.00;;;;;;5031722;28;20033;-69
2022/06/27 02:33:54;;;;;;;1.58;1.30;;;23.70;78.60;;;;;;5031920;28;20032;-68
2022/06/27 02:36:30;;;;;;;1.52;1.13;;;23.70;79.00;;;;;;5031745;28;20037;-68
2022/06/27 02:38:58;;;;;;;1.10;1.05;;;23.70;79.40;;;;;;5032346;28;20033;-68
2022/06/27 02:41:26;;;;;;;1.52;1.40;;;23.70;79.80;;;;;;5032229;28;20029;-69
2022/06/27 02:43:56;;;;;;;1.35;1.25;;;23.60;80.20;;;;;;5032054;28;20363;-69
2022/06/27 02:46:21;;;;;;;3.72;1.42;;;23.60;80.50;;;;;;5032191;28;20428;-69
2022/06/27 02:48:49;;;;;;;1.65;1.48;;;23.60;80.90;;;;;;5031807;28;20026;-69
2022/06/27 02:51:21;;;;;;;1.20;1.05;;;23.50;81.50;;;;;;5032315;28;20057;-69
2022/06/27 02:54:15;;;;;;;2.35;1.65;;;23.50;81.80;;;;;;5031878;28;20130;-67
2022/06/27 02:56:49;;;;;;;1.42;1.23;;;23.50;82.30;;;;;;5031627;28;20045;-68
2022/06/27 02:59:23;;;;;;;1.67;1.50;;;23.50;82.70;;;;;;5032087;28;20034;-67
2022/06/27 03:01:49;;;;;;;1.77;1.42;;;23.50;82.90;;;;;;5031426;28;20029;-67
2022/06/27 03:04:15;;;;;;;2.00;1.05;;;23.50;83.00;;;;;;5032050;28;20076;-67
2022/06/27 03:06:43;;;;;;;3.17;1.77;;;23.40;83.20;;;;;;5031301;28;20381;-67
2022/06/27 03:09:09;;;;;;;2.85;1.70;;;23.50;83.00;;;;;;5031702;28;20427;-68
2022/06/27 03:11:34;;;;;;;1.50;1.25;;;23.50;82.80;;;;;;5031432;28;20065;-67
2022/06/27 03:14:00;;;;;;;1.33;1.23;;;23.50;82.80;;;;;;5032114;28;20373;-67
2022/06/27 03:16:26;;;;;;;1.65;1.52;;;23.50;82.60;;;;;;5031976;28;20026;-67
2022/06/27 03:18:52;;;;;;;1.55;1.20;;;23.50;82.90;;;;;;5017410;28;20033;-67
2022/06/27 03:21:20;;;;;;;4.05;1.60;;;23.50;83.00;;;;;;5035755;28;20076;-68
2022/06/27 03:23:49;;;;;;;3.20;1.58;;;23.40;83.10;;;;;;5035046;28;20033;-68
2022/06/27 03:26:17;;;;;;;2.55;1.45;;;23.50;83.80;;;;;;5035159;28;20530;-67
2022/06/27 03:28:43;;;;;;;1.27;1.13;;;23.40;84.20;;;;;;5034902;28;20030;-68
2022/06/27 03:31:09;;;;;;;1.40;1.30;;;23.30;84.40;;;;;;5035467;28;20025;-68
2022/06/27 03:33:35;;;;;;;1.83;1.60;;;23.30;85.40;;;;;;5034717;28;20423;-68
2022/06/27 03:36:01;;;;;;;2.55;1.48;;;23.20;85.80;;;;;;5035288;28;20461;-68
2022/06/27 03:38:26;;;;;;;2.97;1.67;;;23.20;86.50;;;;;;5034962;28;20033;-68
2022/06/27 03:40:52;;;;;;;1.60;1.50;;;23.20;86.30;;;;;;5034433;28;20022;-68
2022/06/27 03:43:17;;;;;;;1.20;1.10;;;23.20;86.40;;;;;;5035094;28;20025;-68
2022/06/27 03:45:43;;;;;;;1.45;1.35;;;23.20;86.90;;;;;;5034384;28;20056;-68
2022/06/27 03:49:59;;;;;;;1.80;1.63;;;23.20;87.50;;;;;;5034727;28;20029;-68
2022/06/27 03:50:55;;;;;;;1.50;1.38;;;23.20;87.70;;;;;;5034387;28;20031;-68
2022/06/27 03:53:20;;;;;;;2.10;1.35;;;23.20;88.00;;;;;;5034750;28;20116;-66
2022/06/27 03:55:46;;;;;;;2.63;1.83;;;23.20;89.30;;;;;;5034354;28;20476;-68
2022/06/27 03:58:11;;;;;;;1.17;1.00;;;23.20;89.50;;;;;;5034826;28;20083;-68
2022/06/27 04:00:38;;;;;;;1.40;1.30;;;23.10;90.00;;;;;;5033824;28;20038;-68
2022/06/27 04:03:03;;;;;;;1.73;1.63;;;23.20;90.40;;;;;;5034495;28;20528;-67
2022/06/27 04:05:29;;;;;;;1.30;1.20;;;23.20;90.20;;;;;;5016820;28;20030;-68
2022/06/27 04:07:54;;;;;;;1.52;1.30;;;23.30;90.40;;;;;;5034095;28;20033;-68
2022/06/27 04:10:20;;;;;;;2.05;1.52;;;23.30;90.60;;;;;;5034301;28;20080;-68
2022/06/27 04:12:46;;;;;;;1.85;1.48;;;23.30;90.40;;;;;;5033671;28;20021;-68
2022/06/27 04:15:11;;;;;;;1.65;1.20;;;23.40;90.30;;;;;;5033929;28;20338;-68
2022/06/27 04:17:37;;;;;;;1.75;1.33;;;23.40;90.40;;;;;;5031297;28;20034;-68
2022/06/27 04:20:04;;;;;;;1.42;1.33;;;23.60;90.10;;;;;;5033847;28;20025;-68
2022/06/27 04:22:30;;;;;;;1.75;1.50;;;23.60;89.10;;;;;;5029786;28;20029;-68
2022/06/27 04:24:57;;;;;;;1.85;1.60;;;23.70;88.40;;;;;;5034420;28;20101;-68
2022/06/27 04:27:23;;;;;;;2.60;1.40;;;23.70;88.10;;;;;;5012400;28;20065;-68
2022/06/27 04:29:48;;;;;;;1.30;1.20;;;23.80;88.10;;;;;;5012342;28;20026;-68
2022/06/27 04:32:19;;;;;;;2.17;1.80;;;23.80;87.80;;;;;;5011585;28;20037;-67
2022/06/27 04:34:45;;;;;;;1.50;1.40;;;24.00;88.00;;;;;;5008337;28;20033;-68
2022/06/27 04:37:11;;;;;;;2.60;1.55;;;24.10;86.90;;;;;;5013762;28;20034;-67
2022/06/27 04:39:38;;;;;;;1.75;1.35;;;24.20;86.60;;;;;;5013438;28;20030;-68
2022/06/27 04:42:04;;;;;;;1.58;1.40;;;24.30;86.10;;;;;;5013783;28;20022;-67
2022/06/27 04:44:31;;;;;;;1.23;1.13;;;24.30;86.30;;;;;;5013605;28;20034;-67
2022/06/27 04:46:56;;;;;;;2.50;1.25;;;24.30;86.80;;;;;;5013483;28;20033;-68
2022/06/27 04:49:24;;;;;;;2.90;1.60;;;24.30;86.80;;;;;;5012163;28;20475;-66
2022/06/27 04:51:50;;;;;;;1.58;1.45;;;24.30;86.90;;;;;;5013082;28;20030;-67
2022/06/27 04:54:18;;;;;;;2.10;1.90;;;24.40;87.30;;;;;;5013220;28;20060;-67
2022/06/27 04:56:44;;;;;;;2.10;1.50;;;24.50;86.90;;;;;;5011258;28;20433;-67
2022/06/27 04:59:12;;;;;;;1.85;1.38;;;24.50;87.10;;;;;;5010458;28;20033;-67
2022/06/27 05:01:38;;;;;;;1.38;1.27;;;24.60;87.00;;;;;;5013202;28;20068;-67
2022/06/27 05:04:04;;;;;;;1.38;1.27;;;24.70;87.10;;;;;;5012513;28;20477;-67
2022/06/27 05:06:31;;;;;;;2.63;1.40;;;24.90;86.10;;;;;;5013391;28;20029;-66
2022/06/27 05:08:56;;;;;;;2.03;1.52;;;25.00;85.50;;;;;;5013485;28;20108;-67
2022/06/27 05:11:22;;;;;;;1.30;1.20;;;25.20;85.20;;;;;;5013802;28;20110;-66
2022/06/27 05:13:48;;;;;;;1.85;1.48;;;25.40;84.50;;;;;;5012990;28;20033;-68
2022/06/27 05:16:16;;;;;;;3.03;1.30;;;25.50;83.10;;;;;;5013782;28;20382;-68
2022/06/27 05:18:42;;;;;;;1.35;1.25;;;25.80;82.00;;;;;;5012917;28;20030;-68
2022/06/27 05:21:08;;;;;;;2.30;1.13;;;25.90;81.20;;;;;;5013317;28;20038;-67
2022/06/27 05:23:37;;;;;;;4.03;1.30;;;26.10;80.30;;;;;;5012566;28;20411;-67
2022/06/27 05:26:04;;;;;;;2.42;1.25;;;26.40;79.20;;;;;;5013898;28;20029;-67
2022/06/27 05:28:30;;;;;;;1.67;1.40;;;26.50;78.00;;;;;;5033150;28;20431;-67
2022/06/27 05:30:56;;;;;;;1.80;1.30;;;26.70;77.00;;;;;;5032274;28;20395;-67
2022/06/27 05:33:25;;;;;;;1.02;0.93;;;26.90;76.50;;;;;;5033032;28;20025;-67
2022/06/27 05:35:51;;;;;;;2.45;1.48;;;27.20;75.70;;;;;;5031426;28;20374;-67
2022/06/27 05:38:17;;;;;;;2.58;1.50;;;27.40;74.30;;;;;;5030848;28;20029;-67
2022/06/27 05:40:45;;;;;;;1.55;1.45;;;27.50;74.00;;;;;;5032342;28;20609;-66
2022/06/27 05:43:11;;;;;;;3.40;1.55;;;27.70;72.60;;;;;;5033126;28;20022;-67
2022/06/27 05:45:37;;;;;;;5.97;1.90;;;28.00;72.40;;;;;;5032588;28;20025;-67
2022/06/27 05:48:03;;;;;;;1.27;1.17;;;28.30;70.90;;;;;;5032981;28;20109;-67
2022/06/27 05:50:30;;;;;;;1.60;1.50;;;28.70;69.00;;;;;;5033004;28;20041;-68
2022/06/27 05:52:59;;;;;;;3.47;1.75;;;29.30;67.10;;;;;;5032410;28;20026;-67
2022/06/27 05:55:28;;;;;;;1.10;0.95;;;30.30;64.80;;;;;;5033058;28;20063;-67
2022/06/27 05:57:57;;;;;;;1.20;1.10;;;31.90;61.80;;;;;;5032240;28;20113;-67
2022/06/27 06:00:24;;;;;;;1.65;1.27;;;33.30;56.90;;;;;;5032610;28;20526;-67
2022/06/27 06:02:50;;;;;;;1.50;1.10;;;34.50;53.70;;;;;;5032064;28;20025;-67
2022/06/27 06:05:17;;;;;;;1.20;1.05;;;35.30;50.90;;;;;;5032874;28;20495;-67
2022/06/27 06:07:44;;;;;;;1.60;1.40;;;35.70;49.50;;;;;;5032335;28;20472;-67
2022/06/27 06:10:10;;;;;;;2.25;1.23;;;36.00;48.80;;;;;;5032143;28;20037;-67
2022/06/27 06:12:36;;;;;;;1.73;1.00;;;35.80;48.40;;;;;;5032271;28;20028;-67
2022/06/27 06:15:04;;;;;;;1.15;1.05;;;35.20;48.40;;;;;;5032562;28;20097;-67
2022/06/27 06:17:33;;;;;;;4.68;1.30;;;34.40;49.50;;;;;;5032562;28;20029;-67
2022/06/27 06:19:59;;;;;;;4.43;1.55;;;33.60;50.80;;;;;;5031968;28;20034;-68
2022/06/27 06:22:25;;;;;;;2.97;1.35;;;33.00;52.10;;;;;;5032437;28;20030;-68
2022/06/27 06:24:51;;;;;;;2.47;1.48;;;32.50;53.10;;;;;;5031868;28;20033;-67
2022/06/27 06:27:17;;;;;;;2.00;1.40;;;32.10;54.20;;;;;;5032170;28;20045;-67
2022/06/27 06:29:43;;;;;;;2.63;1.50;;;31.80;54.80;;;;;;5014180;28;20385;-67
2022/06/27 06:32:09;;;;;;;2.25;1.40;;;31.50;56.20;;;;;;5031851;28;20105;-67
2022/06/27 06:34:35;;;;;;;1.55;1.40;;;31.40;56.80;;;;;;5032205;28;20127;-67
2022/06/27 06:37:02;;;;;;;1.70;1.35;;;31.30;57.50;;;;;;5014036;28;20516;-67
2022/06/27 06:39:28;;;;;;;1.83;1.27;;;31.40;57.80;;;;;;5032301;28;20037;-68
2022/06/27 06:41:54;;;;;;;2.03;1.40;;;31.70;57.90;;;;;;5032042;28;20544;-67
2022/06/27 06:44:20;;;;;;;1.67;1.25;;;32.20;56.90;;;;;;5032195;28;20033;-67
2022/06/27 06:46:46;;;;;;;1.70;1.50;;;32.70;56.20;;;;;;5031515;28;20543;-67
2022/06/27 06:49:12;;;;;;;3.60;1.20;;;33.20;54.60;;;;;;5032016;28;20065;-66
2022/06/27 06:51:39;;;;;;;2.47;1.38;;;33.70;53.50;;;;;;5032376;28;20504;-67
2022/06/27 06:54:06;;;;;;;1.27;1.10;;;34.10;52.70;;;;;;5035771;28;20026;-67
2022/06/27 06:56:33;;;;;;;1.35;0.90;;;34.60;51.80;;;;;;5035964;28;20028;-67
2022/06/27 06:59:00;;;;;;;2.08;1.17;;;34.80;51.00;;;;;;5035509;28;20124;-66
2022/06/27 07:01:27;;;;;;;2.75;1.45;;;35.00;50.60;;;;;;5036275;28;20033;-68
2022/06/27 07:03:54;;;;;;;1.80;1.38;;;35.10;49.80;;;;;;5035277;28;20436;-67
2022/06/27 07:06:26;;;;;;;1.30;1.20;;;34.90;49.10;;;;;;5035865;28;20100;-67
2022/06/27 07:08:53;;;;;;;2.47;1.20;;;34.80;48.90;;;;;;5035743;28;20029;-67
2022/06/27 07:11:21;;;;;;;1.20;1.10;;;34.70;49.20;;;;;;5036423;28;20109;-66
2022/06/27 07:13:48;;;;;;;2.55;1.40;;;34.80;49.40;;;;;;5035621;28;20029;-67
2022/06/27 07:16:15;;;;;;;3.58;1.67;;;34.90;49.20;;;;;;5035859;28;20021;-67
2022/06/27 07:18:43;;;;;;;2.53;1.35;;;35.00;48.90;;;;;;5035517;28;20424;-68
2022/06/27 07:21:09;;;;;;;2.78;1.30;;;35.00;48.90;;;;;;5035929;28;20104;-66
2022/06/27 07:23:34;;;;;;;1.38;1.27;;;35.10;49.00;;;;;;5035609;28;20572;-66
2022/06/27 07:26:00;;;;;;;1.35;1.25;;;35.50;49.30;;;;;;5035067;28;20049;-67
2022/06/27 07:28:28;;;;;;;1.67;1.40;;;35.70;48.70;;;;;;5034961;28;20036;-66
2022/06/27 07:30:55;;;;;;;1.35;1.10;;;35.60;48.10;;;;;;5034875;28;20477;-66
2022/06/27 07:33:21;;;;;;;2.85;1.40;;;35.30;48.50;;;;;;5035603;28;20048;-66
2022/06/27 07:35:47;;;;;;;2.95;1.38;;;35.00;49.30;;;;;;5035001;28;20033;-67
2022/06/27 07:38:13;;;;;;;2.42;1.20;;;34.90;49.60;;;;;;5035459;28;20142;-67
2022/06/27 07:40:39;;;;;;;3.17;1.30;;;35.00;50.10;;;;;;5035108;28;20041;-67
2022/06/27 07:43:05;;;;;;;1.65;1.15;;;34.90;49.60;;;;;;5035017;28;20036;-67
2022/06/27 07:45:32;;;;;;;2.22;1.42;;;34.70;49.70;;;;;;5035497;28;20095;-67
2022/06/27 07:47:57;;;;;;;1.70;1.20;;;34.50;49.60;;;;;;5034839;28;20034;-67
2022/06/27 07:50:40;;;;;;;1.20;1.10;;;34.20;50.20;;;;;;5035487;28;20458;-66
2022/06/27 07:53:15;;;;;;;5.65;1.23;;;34.30;50.70;;;;;;5034994;28;20034;-67
2022/06/27 07:55:50;;;;;;;4.35;1.00;;;34.40;50.50;;;;;;5035259;28;20021;-67
2022/06/27 07:58:19;;;;;;;2.25;1.27;;;34.50;50.50;;;;;;5035298;28;20083;-67
2022/06/27 08:00:49;;;;;;;2.38;1.00;;;34.40;50.60;;;;;;5034515;28;20044;-68
2022/06/27 08:06:05;;;;;;;2.28;1.50;;;34.20;50.80;;;;;;5034330;28;20528;-67
2022/06/27 08:08:36;;;;;;;2.00;1.13;;;34.10;51.20;;;;;;5034779;28;20128;-66
2022/06/27 08:11:03;;;;;;;1.65;1.23;;;33.90;50.10;;;;;;5034457;28;20087;-67
2022/06/27 08:13:31;;;;;;;3.30;1.27;;;33.80;50.50;;;;;;5034754;28;20035;-66
2022/06/27 08:15:57;;;;;;;3.05;1.30;;;33.70;50.30;;;;;;5034300;28;20037;-66
2022/06/27 08:18:23;;;;;;;1.15;1.08;;;33.80;51.00;;;;;;5034994;28;20462;-67
2022/06/27 08:20:49;;;;;;;2.80;1.15;;;33.70;50.50;;;;;;5016369;28;20063;-67
2022/06/27 08:23:17;;;;;;;1.10;1.00;;;33.70;50.90;;;;;;5034916;28;20032;-66
2022/06/27 08:25:46;;;;;;;1.20;1.05;;;33.70;50.40;;;;;;5034597;28;20057;-67
2022/06/27 08:28:13;;;;;;;1.42;1.33;;;33.60;50.70;;;;;;5034805;28;20053;-67
2022/06/27 08:30:40;;;;;;;1.58;1.20;;;33.40;50.60;;;;;;5034235;28;20409;-67
2022/06/27 08:33:06;;;;;;;1.60;1.30;;;33.40;51.00;;;;;;5034218;28;20504;-67
2022/06/27 08:35:32;;;;;;;1.58;1.02;;;33.30;51.20;;;;;;5034544;28;20068;-67
2022/06/27 08:37:58;;;;;;;1.77;1.20;;;33.30;51.40;;;;;;5033993;28;20033;-67
2022/06/27 08:40:26;;;;;;;1.70;1.17;;;33.20;51.50;;;;;;5033465;28;20029;-66
2022/06/27 08:42:55;;;;;;;3.65;1.73;;;33.10;51.70;;;;;;5034094;28;20083;-66
2022/06/27 08:45:23;;;;;;;2.05;1.08;;;32.90;52.00;;;;;;5034670;28;20052;-66
2022/06/27 08:47:50;;;;;;;2.05;1.30;;;32.80;52.30;;;;;;5033896;28;20022;-67
2022/06/27 08:50:16;;;;;;;2.08;1.42;;;32.60;52.20;;;;;;5034247;28;20025;-67
2022/06/27 08:52:41;;;;;;;2.33;1.30;;;32.40;52.50;;;;;;5034364;28;20026;-67
2022/06/27 08:55:08;;;;;;;1.35;1.20;;;32.30;52.90;;;;;;5033734;28;20277;-67
2022/06/27 08:57:39;;;;;;;2.08;1.35;;;32.10;52.80;;;;;;5034106;28;20461;-67
2022/06/27 09:00:06;;;;;;;;;;;32.00;53.60;;;;;;5033800;28;20041;-67
2022/06/27 09:02:41;;;;;;;1.70;1.20;;;31.90;53.60;;;;;;5033790;28;20349;-67
2022/06/27 09:05:24;;;;;;;1.55;1.23;;;31.90;54.00;;;;;;5033499;28;20083;-67
2022/06/27 09:08:03;;;;;;;2.22;1.40;;;31.80;54.00;;;;;;5033574;28;20028;-67
2022/06/27 09:10:33;;;;;;;2.08;1.40;;;31.80;54.10;;;;;;5033413;28;20138;-67
2022/06/27 09:13:00;;;;;;;2.35;1.38;;;31.80;54.10;;;;;;5033296;28;20022;-67
2022/06/27 09:15:42;;;;;;;1.60;1.13;;;31.70;54.10;;;;;;5033083;28;20032;-66
2022/06/27 09:18:09;;;;;;;1.23;1.13;;;31.60;54.10;;;;;;5033083;28;20025;-68
2022/06/27 09:20:48;;;;;;;1.40;1.30;;;31.60;54.60;;;;;;5033291;28;20034;-67
2022/06/27 09:23:49;;;;;;;1.95;1.27;;;31.60;54.50;;;;;;5032522;28;20374;-67
2022/06/27 09:26:18;;;;;;;1.73;1.33;;;31.60;54.40;;;;;;5033199;28;20026;-67
2022/06/27 09:28:57;;;;;;;5.03;1.25;;;31.50;54.40;;;;;;5033650;28;20057;-66
2022/06/27 09:31:28;;;;;;;3.15;1.35;;;31.50;54.00;;;;;;5033394;28;20033;-66
2022/06/27 09:34:18;;;;;;;2.53;1.30;;;31.40;54.60;;;;;;5033045;28;20026;-67
2022/06/27 09:36:50;;;;;;;1.70;1.40;;;31.40;54.70;;;;;;5033492;28;20037;-66
2022/06/27 09:39:19;;;;;;;1.33;1.20;;;31.40;54.90;;;;;;5033459;28;20293;-66
2022/06/27 09:41:56;;;;;;;5.15;1.50;;;31.40;54.70;;;;;;5033182;28;20033;-67
2022/06/27 09:44:35;;;;;;;3.45;1.27;;;31.30;54.70;;;;;;5033241;28;20033;-67
2022/06/27 09:47:20;;;;;;;2.63;1.20;;;31.40;52.60;;;;;;5032631;28;20037;-68
2022/06/27 09:49:52;;;;;;;1.67;1.38;;;31.40;52.60;;;;;;5033063;28;20492;-67
2022/06/27 09:52:23;;;;;;;2.10;1.20;;;31.40;53.80;;;;;;5032899;28;20120;-68
2022/06/27 09:54:51;;;;;;;1.55;1.30;;;31.40;54.20;;;;;;5032897;28;20381;-66
2022/06/27 09:57:18;;;;;;;1.83;1.17;;;31.40;53.80;;;;;;5032988;28;20412;-66
2022/06/27 09:59:46;;;;;;;3.55;1.35;;;31.50;54.30;;;;;;5032418;28;20485;-66
2022/06/27 10:02:13;;;;;;;4.20;1.30;;;31.50;54.10;;;;;;5032210;28;20112;-66
2022/06/27 10:04:42;;;;;;;2.53;1.20;;;31.60;52.50;;;;;;5032449;28;20041;-66
2022/06/27 10:07:09;;;;;;;2.22;1.40;;;31.60;51.90;;;;;;5032166;28;20036;-67
2022/06/27 10:09:38;;;;;;;2.85;1.13;;;31.60;52.30;;;;;;5032707;28;20108;-67
2022/06/27 10:12:23;;;;;;;1.50;1.30;;;31.70;52.10;;;;;;5032142;28;20482;-67
2022/06/27 10:15:12;;;;;;;2.08;1.58;;;31.70;52.60;;;;;;5032625;28;20030;-66
2022/06/27 10:17:41;;;;;;;4.00;1.30;;;31.70;52.50;;;;;;5032694;28;20040;-66
2022/06/27 10:20:12;;;;;;;1.25;1.10;;;31.70;51.90;;;;;;5032188;28;20064;-67
2022/06/27 10:22:39;;;;;;;1.55;1.08;;;31.70;51.50;;;;;;5032788;28;20044;-67
2022/06/27 10:25:26;;;;;;;4.07;1.50;;;31.80;52.20;;;;;;5032100;28;20038;-66
2022/06/27 10:28:11;;;;;;;2.08;1.27;;;31.80;51.70;;;;;;5032100;28;20054;-67
2022/06/27 10:30:39;;;;;;;1.15;1.05;;;31.80;51.50;;;;;;5032352;28;20082;-67
2022/06/27 10:33:26;;;;;;;1.85;1.40;;;31.80;50.90;;;;;;5032507;28;20075;-67
2022/06/27 10:36:10;;;;;;;3.60;1.38;;;31.80;50.00;;;;;;5032497;28;20029;-67
2022/06/27 10:38:39;;;;;;;1.08;1.00;;;31.80;50.20;;;;;;5032322;28;20124;-67
2022/06/27 10:41:07;;;;;;;2.22;1.30;;;31.80;49.60;;;;;;5032119;28;20034;-67
2022/06/27 10:43:36;;;;;;;2.38;1.63;;;31.80;49.70;;;;;;5032434;28;20457;-67
2022/06/27 10:46:25;;;;;;;4.43;1.52;;;31.80;49.90;;;;;;5031748;28;20381;-67
2022/06/27 10:48:54;;;;;;;1.30;1.00;;;31.80;50.30;;;;;;5016831;28;20082;-66
2022/06/27 10:51:24;;;;;;;2.22;1.20;;;31.90;50.60;;;;;;5031746;28;20021;-66
2022/06/27 10:54:06;;;;;;;1.23;1.13;;;31.90;50.00;;;;;;5032363;28;20033;-66
2022/06/27 10:56:31;;;;;;;2.17;1.20;;;31.90;49.50;;;;;;5032138;28;20025;-67
2022/06/27 10:59:15;;;;;;;1.52;1.25;;;32.00;49.60;;;;;;5031892;28;20046;-67
2022/06/27 11:01:42;;;;;;;1.30;1.10;;;32.00;50.00;;;;;;5032108;28;20021;-67
2022/06/27 11:04:24;;;;;;;1.20;1.10;;;32.00;49.60;;;;;;5031917;28;20117;-67
2022/06/27 11:07:17;;;;;;;1.58;1.10;;;32.10;49.60;;;;;;5032530;28;20021;-66
2022/06/27 11:09:47;;;;;;;3.47;1.60;;;32.10;48.70;;;;;;5029392;28;20041;-67
2022/06/27 11:12:23;;;;;;;1.77;1.30;;;32.10;48.30;;;;;;5014208;28;20354;-67
2022/06/27 11:14:57;;;;;;;1.75;1.00;;;32.10;48.00;;;;;;5032204;28;20029;-67
2022/06/27 11:17:41;;;;;;;2.00;1.20;;;32.10;48.50;;;;;;5032173;28;20029;-67
2022/06/27 11:20:13;;;;;;;4.22;1.10;;;32.20;48.60;;;;;;5031568;28;20124;-66
2022/06/27 11:22:43;;;;;;;1.90;1.40;;;32.20;48.30;;;;;;5032129;28;20033;-67
2022/06/27 11:25:09;;;;;;;3.77;1.80;;;32.20;48.50;;;;;;5031824;28;20061;-67
2022/06/27 11:27:50;;;;;;;1.58;1.20;;;32.20;47.90;;;;;;5031775;28;20267;-67
2022/06/27 11:33:33;;;;;;;1.55;1.20;;;32.30;47.90;;;;;;5007611;28;20122;-67
2022/06/27 11:36:00;;;;;;;1.35;1.25;;;32.30;48.00;;;;;;5011815;28;20029;-67
2022/06/27 11:38:29;;;;;;;3.15;1.50;;;32.30;48.00;;;;;;5013432;28;20055;-67
2022/06/27 11:41:09;;;;;;;3.25;1.40;;;32.30;48.10;;;;;;5015678;28;20038;-67
2022/06/27 11:43:54;;;;;;;1.58;1.00;;;32.40;48.00;;;;;;5015921;28;20026;-67
2022/06/27 11:46:39;;;;;;;2.78;1.35;;;32.40;48.10;;;;;;5015241;28;20053;-67
2022/06/27 11:49:06;;;;;;;1.83;1.33;;;32.40;48.00;;;;;;5015063;28;20030;-67
2022/06/27 11:51:39;;;;;;;2.45;1.23;;;32.40;47.80;;;;;;5015486;28;20054;-67
2022/06/27 11:54:09;;;;;;;2.08;1.30;;;32.40;47.30;;;;;;5014856;28;20026;-67
2022/06/27 11:56:40;;;;;;;1.85;1.23;;;32.40;47.80;;;;;;5015488;28;20080;-67
2022/06/27 11:59:08;;;;;;;2.03;1.30;;;32.30;48.10;;;;;;5015037;28;20049;-67
2022/06/27 12:01:48;;;;;;;3.03;1.55;;;32.30;47.80;;;;;;5015435;28;20022;-66
2022/06/27 12:04:16;;;;;;;2.60;1.45;;;32.30;48.10;;;;;;5014680;28;20030;-65
2022/06/27 12:06:54;;;;;;;1.25;1.15;;;32.30;48.30;;;;;;5015074;28;20109;-66
2022/06/27 12:09:22;;;;;;;1.55;1.13;;;32.30;48.10;;;;;;5014272;28;20030;-66
2022/06/27 12:11:59;;;;;;;1.60;1.00;;;32.20;48.70;;;;;;5014749;28;20389;-66
2022/06/27 12:14:26;;;;;;;1.45;1.10;;;32.20;48.80;;;;;;5014465;28;20088;-67
2022/06/27 12:16:54;;;;;;;2.72;1.15;;;32.10;48.80;;;;;;5014990;28;20037;-67
2022/06/27 12:19:20;;;;;;;2.15;1.52;;;32.10;49.00;;;;;;5014431;28;20446;-67
2022/06/27 12:21:46;;;;;;;2.90;1.50;;;32.10;49.20;;;;;;5014795;28;20033;-67
2022/06/27 12:24:13;;;;;;;2.83;1.40;;;32.00;48.70;;;;;;5014304;28;20022;-67
2022/06/27 12:26:39;;;;;;;2.95;1.27;;;32.00;48.50;;;;;;5014369;28;20060;-66
2022/06/27 12:29:06;;;;;;;2.67;1.45;;;32.10;48.30;;;;;;5014362;28;20033;-67
2022/06/27 12:31:33;;;;;;;1.35;1.10;;;32.10;48.60;;;;;;5014443;28;20037;-67
2022/06/27 12:33:59;;;;;;;1.75;1.17;;;32.10;48.20;;;;;;5014568;28;20105;-67
2022/06/27 12:36:25;;;;;;;3.17;1.63;;;32.00;48.50;;;;;;5014150;28;20033;-65
2022/06/27 12:38:50;;;;;;;3.20;1.45;;;32.00;48.30;;;;;;5014524;28;20025;-66
2022/06/27 12:41:16;;;;;;;2.53;1.40;;;32.00;48.40;;;;;;5014067;28;20026;-66
2022/06/27 12:43:46;;;;;;;1.63;1.23;;;31.90;48.40;;;;;;5014468;28;20462;-66
2022/06/27 12:46:13;;;;;;;1.35;1.17;;;31.90;48.70;;;;;;5014388;28;20359;-67
2022/06/27 12:48:40;;;;;;;1.98;1.38;;;31.90;48.60;;;;;;5014312;28;20034;-67
2022/06/27 12:51:07;;;;;;;1.73;1.63;;;31.90;48.80;;;;;;5029544;28;20025;-67
2022/06/27 12:53:33;;;;;;;2.33;1.10;;;31.90;48.60;;;;;;5033904;28;20023;-67
2022/06/27 12:56:01;;;;;;;3.50;1.40;;;31.90;48.60;;;;;;5033928;28;20348;-67
2022/06/27 12:58:26;;;;;;;1.40;0.98;;;31.90;48.70;;;;;;5033540;28;20033;-67
2022/06/27 13:00:52;;;;;;;3.10;1.52;;;31.90;48.70;;;;;;5034066;28;20381;-67